Estación Meteorológica Peña el Pijo (Robertgarden) [ 12/17/17 01:30:47 CET ]

Fecha Hora Presion(HPa) Temp (°C) Humedad % Rocio (°C) Viento ( m/s) Direccion Lluvia 1Hora(mm) Lluvia 24H(mm) LLuvia Total(mm)
2017-Oct-10 01:01:37 1013.400 10.3 72 5.5         1457.65
2017-Oct-10 02:01:51 1013.200 10.3 73 5.7         1457.65
2017-Oct-10 03:01:43 1013.100 9.4 73 4.8         1457.65
2017-Oct-10 04:01:38 1013.100 8.4 74 4.0         1457.65
2017-Oct-10 05:01:42 1012.800 7.5 74 3.2         1457.65
2017-Oct-10 06:01:48 1012.700 6.9 74 2.6         1457.65
2017-Oct-10 07:01:40 1012.900 8.1 72 3.4         1457.65
2017-Oct-10 08:01:45 1013.000 7.2 71 2.3         1457.65
2017-Oct-10 09:01:47 1013.500 7.8 72 3.1         1457.65
2017-Oct-10 10:01:54 1013.800 15.2 59 7.2         1457.65
2017-Oct-10 11:01:52 1013.700 23.9 40 9.5         1457.65
2017-Oct-10 12:01:54 1013.400 28.1 27 7.1         1457.65
2017-Oct-10 13:01:46 1013.700 28.4 22 4.5         1457.65
2017-Oct-10 14:01:49 1013.200 27.2 22 3.5         1457.65
2017-Oct-10 15:01:50 1012.500 29.3 19 3.1         1457.65
2017-Oct-10 16:01:46 1011.900 30.2 19 3.8         1457.65
2017-Oct-10 17:01:40 1012.100 27.4 26 6.0 1.3 W     1457.65
2017-Oct-10 18:01:56 1012.400 23.8 28 4.1         1457.65
2017-Oct-10 19:01:53 1012.800 20.9 32 3.5         1457.65
2017-Oct-10 20:01:31 1013.400 19.3 47 7.8         1457.65
2017-Oct-10 21:01:41 1014.000 16.7 55 7.6         1457.65
2017-Oct-10 22:01:18 1014.600 14.1 62 6.9         1457.65
2017-Oct-10 23:01:31 1014.900 12.2 67 6.2         1457.65

Temperatura Máxima:30°    Temperatura Mínima:
Presión Máxima:1014.900 Hpa    Presión Mínima:1011.900 Hpa


Volver